Time;durP1;ratioP1;P1;durP2;ratioP2;P2;SDS_P1;SDS_P2;PMS_P1;PMS_P2;Temp;Humidity;BMP_temperature;BMP_pressure;BME280_temperature;BME280_humidity;BME280_pressure;Samples;Min_cycle;Max_cycle;Signal;HPM_P1;HPM_P2
2022/05/28 00:01:21;;;;;;;3.67;3.37;;;15.20;94.80;;;;;;5054771;28;20429;-46
2022/05/28 00:03:48;;;;;;;5.10;3.80;;;15.20;94.90;;;;;;5036572;28;20557;-46
2022/05/28 00:06:19;;;;;;;3.97;3.40;;;15.20;94.70;;;;;;5053814;28;20476;-46
2022/05/28 00:08:45;;;;;;;6.00;3.57;;;15.20;94.60;;;;;;5033778;28;20442;-46
2022/05/28 00:11:18;;;;;;;8.23;3.10;;;15.10;94.50;;;;;;5053065;28;20475;-45
2022/05/28 00:13:44;;;;;;;3.90;3.07;;;15.00;94.50;;;;;;5055986;28;20420;-46
2022/05/28 00:16:11;;;;;;;5.07;3.57;;;14.90;94.50;;;;;;5056189;28;20430;-46
2022/05/28 00:18:38;;;;;;;4.73;4.07;;;15.00;94.60;;;;;;5057010;28;20428;-46
2022/05/28 00:21:04;;;;;;;7.03;4.10;;;15.00;94.60;;;;;;5040187;28;20540;-44
2022/05/28 00:23:30;;;;;;;7.43;4.57;;;15.00;94.50;;;;;;5039677;28;20516;-44
2022/05/28 00:25:55;;;;;;;4.97;4.47;;;15.00;94.50;;;;;;5058181;28;20852;-44
2022/05/28 00:28:21;;;;;;;4.90;3.90;;;15.00;94.60;;;;;;5057675;28;20419;-46
2022/05/28 00:30:48;;;;;;;5.20;3.87;;;15.10;94.60;;;;;;5056522;28;20213;-46
2022/05/28 00:33:13;;;;;;;6.23;4.10;;;15.00;94.40;;;;;;5056446;28;20162;-46
2022/05/28 00:35:39;;;;;;;5.03;4.20;;;15.10;94.40;;;;;;5056596;28;20536;-45
2022/05/28 00:38:05;;;;;;;4.57;3.60;;;15.00;94.00;;;;;;5056031;28;20182;-44
2022/05/28 00:40:31;;;;;;;10.33;4.70;;;14.80;93.10;;;;;;5056261;28;20191;-44
2022/05/28 00:43:01;;;;;;;7.63;4.20;;;14.70;93.60;;;;;;5056461;28;20502;-44
2022/05/28 00:45:28;;;;;;;5.80;3.50;;;14.50;93.90;;;;;;5056601;28;20189;-45
2022/05/28 00:47:56;;;;;;;4.40;3.20;;;14.50;94.30;;;;;;5039132;28;20418;-53
2022/05/28 00:50:23;;;;;;;9.30;4.10;;;14.50;94.40;;;;;;5056125;28;20913;-45
2022/05/28 00:52:48;;;;;;;5.93;3.80;;;14.50;94.30;;;;;;5055173;28;20479;-45
2022/05/28 00:55:15;;;;;;;9.33;3.90;;;14.60;94.30;;;;;;5057256;28;20422;-44
2022/05/28 00:57:42;;;;;;;5.47;3.50;;;14.60;94.20;;;;;;5056819;28;20212;-44
2022/05/28 01:00:11;;;;;;;6.57;3.73;;;14.60;94.10;;;;;;5055946;28;20736;-45
2022/05/28 01:02:53;;;;;;;6.47;3.60;;;14.70;94.00;;;;;;5055746;28;20525;-44
2022/05/28 01:05:27;;;;;;;5.03;3.40;;;14.70;93.80;;;;;;5055886;28;20442;-45
2022/05/28 01:08:05;;;;;;;6.70;3.80;;;14.70;93.70;;;;;;5038155;28;20417;-45
2022/05/28 01:10:51;;;;;;;6.30;3.87;;;14.70;93.80;;;;;;5055239;28;20559;-45
2022/05/28 01:13:19;;;;;;;6.67;3.70;;;14.80;93.90;;;;;;5055932;28;20854;-44
2022/05/28 01:15:53;;;;;;;5.17;3.47;;;14.80;94.00;;;;;;5055458;28;20471;-45
2022/05/28 01:18:44;;;;;;;7.03;3.60;;;14.80;94.00;;;;;;5039649;28;20404;-45
2022/05/28 01:21:38;;;;;;;5.43;3.50;;;14.80;94.10;;;;;;5038809;28;20528;-46
2022/05/28 01:24:28;;;;;;;7.70;3.90;;;14.80;94.00;;;;;;5056313;28;20434;-46
2022/05/28 01:30:08;;;;;;;6.17;3.80;;;14.80;93.60;;;;;;5014945;28;20923;-46
2022/05/28 01:32:34;;;;;;;5.03;3.47;;;14.70;93.60;;;;;;5038933;28;20421;-45
2022/05/28 01:35:03;;;;;;;9.07;3.70;;;14.70;93.30;;;;;;5056849;28;20521;-45
2022/05/28 01:37:29;;;;;;;8.23;4.07;;;14.60;92.70;;;;;;5042078;28;20413;-45
2022/05/28 01:39:55;;;;;;;5.63;3.60;;;14.60;92.90;;;;;;5026040;28;20441;-45
2022/05/28 01:42:22;;;;;;;5.30;3.30;;;14.60;93.00;;;;;;5060549;28;20452;-46
2022/05/28 01:44:49;;;;;;;7.27;3.70;;;14.50;92.80;;;;;;5060927;28;20413;-45
2022/05/28 01:47:16;;;;;;;7.40;3.70;;;14.50;92.70;;;;;;5061255;28;20690;-45
2022/05/28 01:49:42;;;;;;;5.87;3.90;;;14.50;92.60;;;;;;5043260;28;20414;-45
2022/05/28 01:52:10;;;;;;;5.60;2.97;;;14.50;92.60;;;;;;5043285;28;20421;-45
2022/05/28 01:54:43;;;;;;;6.13;3.77;;;14.40;92.40;;;;;;5043480;28;20516;-45
2022/05/28 01:57:09;;;;;;;10.53;4.40;;;14.40;91.90;;;;;;5043977;28;20503;-46
2022/05/28 01:59:35;;;;;;;5.27;3.07;;;14.40;92.10;;;;;;5043930;28;20441;-45
2022/05/28 02:02:03;;;;;;;8.90;3.90;;;14.40;92.00;;;;;;5060795;28;20426;-45
2022/05/28 02:04:30;;;;;;;8.37;3.67;;;14.30;92.00;;;;;;5060721;28;20175;-46
2022/05/28 02:06:56;;;;;;;4.53;3.07;;;14.30;91.90;;;;;;5060785;28;20467;-45
2022/05/28 02:09:26;;;;;;;5.70;3.40;;;14.30;91.90;;;;;;5043319;28;20482;-45
2022/05/28 02:12:16;;;;;;;6.27;3.50;;;14.30;91.70;;;;;;5042874;28;20321;-45
2022/05/28 02:15:17;;;;;;;5.03;3.40;;;14.20;91.40;;;;;;5061015;28;20826;-45
2022/05/28 02:17:58;;;;;;;9.03;4.47;;;14.20;91.40;;;;;;5060715;28;20425;-45
2022/05/28 02:20:41;;;;;;;7.63;2.70;;;14.10;91.20;;;;;;5042564;28;20419;-46
2022/05/28 02:23:31;;;;;;;9.03;3.60;;;14.10;91.50;;;;;;5059387;28;20413;-45
2022/05/28 02:26:06;;;;;;;8.30;3.30;;;14.00;91.40;;;;;;5042499;28;20486;-45
2022/05/28 02:28:33;;;;;;;7.40;3.00;;;14.00;91.40;;;;;;5059736;28;20422;-46
2022/05/28 02:31:02;;;;;;;9.30;3.80;;;13.90;91.10;;;;;;5041913;28;20563;-50
2022/05/28 02:33:32;;;;;;;4.93;3.10;;;13.90;91.00;;;;;;5059560;28;20416;-45
2022/05/28 02:35:57;;;;;;;4.67;3.13;;;13.90;91.10;;;;;;5025155;28;20439;-45
2022/05/28 02:38:23;;;;;;;6.00;3.43;;;13.90;91.10;;;;;;5059800;28;20421;-45
2022/05/28 02:40:49;;;;;;;7.80;3.67;;;13.90;91.00;;;;;;5059187;28;20463;-45
2022/05/28 02:43:15;;;;;;;8.87;3.50;;;13.80;90.90;;;;;;5042696;28;20183;-45
2022/05/28 02:45:41;;;;;;;14.00;3.57;;;13.80;91.00;;;;;;5059763;28;20240;-45
2022/05/28 02:48:07;;;;;;;5.50;3.07;;;13.80;91.00;;;;;;5060015;28;20264;-45
2022/05/28 02:50:33;;;;;;;6.00;3.00;;;13.80;91.10;;;;;;5059832;28;20870;-45
2022/05/28 02:52:59;;;;;;;7.53;3.43;;;13.80;91.10;;;;;;5059536;28;20427;-46
2022/05/28 02:55:25;;;;;;;7.40;3.17;;;13.80;91.10;;;;;;5059040;28;20178;-44
2022/05/28 02:57:50;;;;;;;8.87;2.97;;;13.80;90.90;;;;;;5058882;28;20441;-46
2022/05/28 03:00:16;;;;;;;4.80;2.90;;;13.80;90.80;;;;;;5058902;28;20191;-45
2022/05/28 03:02:43;;;;;;;5.23;2.63;;;13.80;90.80;;;;;;5059067;28;20182;-45
2022/05/28 03:05:11;;;;;;;6.50;2.70;;;13.80;90.80;;;;;;5059589;28;20429;-45
2022/05/28 03:07:37;;;;;;;7.03;2.90;;;13.80;90.90;;;;;;5058602;28;20714;-45
2022/05/28 03:10:02;;;;;;;8.73;2.83;;;13.70;90.80;;;;;;5058549;28;20472;-45
2022/05/28 03:12:28;;;;;;;6.30;2.40;;;13.80;90.80;;;;;;5040922;28;20181;-45
2022/05/28 03:14:54;;;;;;;7.33;2.93;;;13.70;90.70;;;;;;5057661;28;20177;-44
2022/05/28 03:17:19;;;;;;;6.77;2.93;;;13.80;91.10;;;;;;5058837;28;20247;-45
2022/05/28 03:19:45;;;;;;;6.30;3.30;;;13.70;90.70;;;;;;5058874;28;20580;-45
2022/05/28 03:22:10;;;;;;;7.67;3.00;;;13.70;90.70;;;;;;5059716;28;20224;-45
2022/05/28 03:24:36;;;;;;;5.73;2.80;;;13.70;90.70;;;;;;5059384;28;20166;-45
2022/05/28 03:27:02;;;;;;;6.83;3.07;;;13.60;90.50;;;;;;5057701;28;20568;-45
2022/05/28 03:29:27;;;;;;;9.03;3.20;;;13.60;90.40;;;;;;5056545;28;20166;-45
2022/05/28 03:31:53;;;;;;;7.23;2.97;;;13.60;90.20;;;;;;5057617;28;20607;-44
2022/05/28 03:34:19;;;;;;;7.13;2.37;;;13.50;90.10;;;;;;5039213;28;20222;-45
2022/05/28 03:36:44;;;;;;;7.97;3.50;;;13.50;90.00;;;;;;5057001;28;20189;-45
2022/05/28 03:39:10;;;;;;;6.93;2.70;;;13.50;89.20;;;;;;5057416;28;20173;-45
2022/05/28 03:41:36;;;;;;;6.60;2.83;;;13.50;89.30;;;;;;5057378;28;20232;-45
2022/05/28 03:44:01;;;;;;;4.27;2.60;;;13.50;89.30;;;;;;5058662;28;20418;-44
2022/05/28 03:46:30;;;;;;;5.27;2.67;;;13.40;88.70;;;;;;5040157;28;20573;-45
2022/05/28 03:49:00;;;;;;;5.70;2.40;;;13.50;88.70;;;;;;5056221;28;20186;-45
2022/05/28 03:51:26;;;;;;;6.03;2.40;;;13.50;88.50;;;;;;5056604;28;20580;-45
2022/05/28 03:53:52;;;;;;;3.60;2.20;;;13.50;88.60;;;;;;5056630;28;20571;-45
2022/05/28 03:56:19;;;;;;;5.93;2.60;;;13.50;88.60;;;;;;5057539;28;20259;-46
2022/05/28 03:58:44;;;;;;;5.30;2.63;;;13.50;88.20;;;;;;5039943;28;20404;-45
2022/05/28 04:01:10;;;;;;;6.97;4.30;;;13.50;87.80;;;;;;5040373;28;20604;-45
2022/05/28 04:03:36;;;;;;;5.13;2.60;;;13.50;87.60;;;;;;5058000;28;20178;-45
2022/05/28 04:06:03;;;;;;;7.87;2.33;;;13.60;87.50;;;;;;5057869;28;20203;-44
2022/05/28 04:08:28;;;;;;;7.53;3.30;;;13.60;87.40;;;;;;5057400;28;20425;-45
2022/05/28 04:10:54;;;;;;;6.37;3.00;;;13.60;87.10;;;;;;5039061;28;20476;-45
2022/05/28 04:13:20;;;;;;;4.10;2.30;;;13.70;86.80;;;;;;5056281;28;20200;-45
2022/05/28 04:15:48;;;;;;;6.10;2.20;;;13.70;86.40;;;;;;5055276;28;20174;-45
2022/05/28 04:18:14;;;;;;;7.13;2.60;;;13.70;86.20;;;;;;5054877;28;20423;-45
2022/05/28 04:20:39;;;;;;;5.83;2.90;;;13.80;86.10;;;;;;5055008;28;20430;-44
2022/05/28 04:23:05;;;;;;;6.03;2.27;;;13.80;85.90;;;;;;5053817;28;20183;-45
2022/05/28 04:25:30;;;;;;;6.40;2.60;;;13.90;85.80;;;;;;5054930;28;20212;-43
2022/05/28 04:27:56;;;;;;;5.07;2.50;;;13.90;85.40;;;;;;5056213;28;20177;-45
2022/05/28 04:30:21;;;;;;;6.50;2.53;;;14.00;85.10;;;;;;5056395;28;20217;-45
2022/05/28 04:32:47;;;;;;;9.33;2.70;;;14.10;85.00;;;;;;5040303;28;20265;-45
2022/05/28 04:35:13;;;;;;;6.63;2.20;;;14.20;84.40;;;;;;5057558;28;20222;-45
2022/05/28 04:37:39;;;;;;;6.67;2.80;;;14.20;83.80;;;;;;5056585;28;20227;-45
2022/05/28 04:40:06;;;;;;;8.43;3.20;;;14.30;82.90;;;;;;5040037;28;20552;-45
2022/05/28 04:42:31;;;;;;;4.10;2.50;;;14.40;82.70;;;;;;5056808;28;20413;-45
2022/05/28 04:44:57;;;;;;;4.23;2.80;;;14.40;82.60;;;;;;5056639;28;20532;-43
2022/05/28 04:47:23;;;;;;;8.90;2.70;;;14.40;82.30;;;;;;5056568;28;20561;-45
2022/05/28 04:49:48;;;;;;;4.00;2.13;;;14.40;82.10;;;;;;5039492;28;20166;-45
2022/05/28 04:52:14;;;;;;;7.93;2.80;;;14.50;82.10;;;;;;5056358;28;20420;-45
2022/05/28 04:54:40;;;;;;;4.63;2.70;;;14.50;82.00;;;;;;5056714;28;20165;-45
2022/05/28 04:57:05;;;;;;;6.20;2.43;;;14.50;82.10;;;;;;5057155;28;20440;-44
2022/05/28 04:59:31;;;;;;;7.20;2.90;;;14.50;82.10;;;;;;5056322;28;20170;-45
2022/05/28 05:01:57;;;;;;;4.87;2.13;;;14.60;82.00;;;;;;5057561;28;20178;-45
2022/05/28 05:04:23;;;;;;;4.83;2.50;;;14.50;81.70;;;;;;5057366;28;20269;-44
2022/05/28 05:06:49;;;;;;;6.80;2.60;;;14.60;81.50;;;;;;5056215;28;20791;-44
2022/05/28 05:09:14;;;;;;;7.30;3.13;;;14.60;81.10;;;;;;5055621;28;20174;-45
2022/05/28 05:11:40;;;;;;;6.40;2.70;;;14.60;81.20;;;;;;5055950;28;20216;-45
2022/05/28 05:14:06;;;;;;;5.80;2.67;;;14.60;81.30;;;;;;5055394;28;20265;-46
2022/05/28 05:16:31;;;;;;;4.60;2.30;;;14.60;81.30;;;;;;5055040;28;20214;-45
2022/05/28 05:18:57;;;;;;;5.97;3.20;;;14.60;80.90;;;;;;5053573;28;20573;-45
2022/05/28 05:21:23;;;;;;;11.30;3.67;;;14.70;80.80;;;;;;5053071;28;20182;-45
2022/05/28 05:23:48;;;;;;;9.63;4.10;;;14.60;80.60;;;;;;5053327;28;20600;-45
2022/05/28 05:26:18;;;;;;;4.50;2.93;;;14.60;80.20;;;;;;5053864;28;20210;-44
2022/05/28 05:28:44;;;;;;;7.10;3.53;;;14.70;80.10;;;;;;5053826;28;20378;-45
2022/05/28 05:31:10;;;;;;;5.40;3.10;;;14.80;80.20;;;;;;5053634;28;20837;-43
2022/05/28 05:33:35;;;;;;;5.10;2.80;;;14.90;80.10;;;;;;5053436;28;20505;-45
2022/05/28 05:36:01;;;;;;;4.37;2.57;;;14.90;80.30;;;;;;5053701;28;20491;-45
2022/05/28 05:38:27;;;;;;;5.70;2.87;;;15.00;79.30;;;;;;5035846;28;20189;-44
2022/05/28 05:40:53;;;;;;;6.63;3.00;;;15.10;79.30;;;;;;5053678;28;20209;-45
2022/05/28 05:43:19;;;;;;;7.20;2.77;;;15.10;78.90;;;;;;5055125;28;20842;-46
2022/05/28 05:45:56;;;;;;;6.50;3.20;;;15.20;79.20;;;;;;5037380;28;20521;-45
2022/05/28 05:48:22;;;;;;;6.10;2.87;;;15.30;78.70;;;;;;5037625;28;20484;-46
2022/05/28 05:50:48;;;;;;;6.47;3.03;;;15.30;78.10;;;;;;5054844;28;20484;-45
2022/05/28 05:53:14;;;;;;;6.67;4.30;;;15.30;78.20;;;;;;5054786;28;20424;-45
2022/05/28 05:55:39;;;;;;;4.43;2.83;;;15.40;77.90;;;;;;5054362;28;20895;-45
2022/05/28 05:58:05;;;;;;;5.50;2.80;;;15.50;77.40;;;;;;5053587;28;20714;-45
2022/05/28 06:00:31;;;;;;;7.43;3.23;;;15.60;77.20;;;;;;5052643;28;20183;-45
2022/05/28 06:02:56;;;;;;;7.03;3.03;;;15.70;76.50;;;;;;5054512;28;20631;-45
2022/05/28 06:05:22;;;;;;;6.20;2.20;;;15.80;75.40;;;;;;5054929;28;20183;-46
2022/05/28 06:07:48;;;;;;;4.77;2.20;;;15.90;74.90;;;;;;5056600;28;20180;-45
2022/05/28 06:10:13;;;;;;;4.27;2.33;;;16.00;74.30;;;;;;5053896;28;20604;-46
2022/05/28 06:12:39;;;;;;;5.00;2.50;;;16.20;73.30;;;;;;5039212;28;20182;-47
2022/05/28 06:15:06;;;;;;;8.07;3.07;;;16.30;72.40;;;;;;5038569;28;20422;-45
2022/05/28 06:17:34;;;;;;;3.93;2.00;;;16.40;71.80;;;;;;5055517;28;20203;-46
2022/05/28 06:20:02;;;;;;;4.67;2.37;;;16.60;71.30;;;;;;5054275;28;20421;-45
2022/05/28 06:22:27;;;;;;;6.63;2.67;;;16.80;70.50;;;;;;5022398;28;20443;-46
2022/05/28 06:24:54;;;;;;;7.90;2.50;;;16.80;69.40;;;;;;5055247;28;20434;-46
2022/05/28 06:27:21;;;;;;;7.13;2.20;;;16.80;68.80;;;;;;5038949;28;20174;-46
2022/05/28 06:29:46;;;;;;;5.07;2.20;;;16.90;67.10;;;;;;5057093;28;20423;-45
2022/05/28 06:32:12;;;;;;;6.83;2.77;;;17.00;67.00;;;;;;5055949;28;20545;-45
2022/05/28 06:34:37;;;;;;;4.87;2.23;;;17.10;67.10;;;;;;5057310;28;20266;-45
2022/05/28 06:37:07;;;;;;;9.70;3.03;;;17.20;64.90;;;;;;5056950;28;20182;-45
2022/05/28 06:39:33;;;;;;;3.40;1.80;;;17.20;65.10;;;;;;5069541;28;20271;-46
2022/05/28 06:41:59;;;;;;;4.17;1.93;;;17.40;65.00;;;;;;5077463;28;20760;-44
2022/05/28 06:44:26;;;;;;;7.10;2.90;;;17.60;64.70;;;;;;5077405;28;20425;-46
2022/05/28 06:46:52;;;;;;;7.10;2.67;;;17.70;63.90;;;;;;5077379;28;20684;-46
2022/05/28 06:49:18;;;;;;;5.67;2.20;;;17.80;62.60;;;;;;5060248;28;20416;-46
2022/05/28 06:51:44;;;;;;;5.60;2.00;;;17.90;62.10;;;;;;5077941;28;20607;-46
2022/05/28 06:54:10;;;;;;;4.27;1.50;;;18.00;62.10;;;;;;5043035;28;20174;-46
2022/05/28 06:56:35;;;;;;;7.73;2.03;;;18.10;61.30;;;;;;5076301;28;20430;-47
2022/05/28 06:59:02;;;;;;;4.13;1.70;;;18.20;60.60;;;;;;5077313;28;20409;-45
2022/05/28 07:01:28;;;;;;;4.17;2.00;;;18.30;60.60;;;;;;5061267;28;20203;-45
2022/05/28 07:03:53;;;;;;;3.37;1.63;;;18.50;59.90;;;;;;5078611;28;20846;-49
2022/05/28 07:06:19;;;;;;;4.03;1.47;;;18.60;59.70;;;;;;5028409;28;20183;-45
2022/05/28 07:08:45;;;;;;;5.73;2.60;;;18.70;58.80;;;;;;5079807;28;20186;-46
2022/05/28 07:11:11;;;;;;;3.07;2.00;;;18.80;57.80;;;;;;5077381;28;20214;-47
2022/05/28 07:13:37;;;;;;;6.73;1.80;;;18.90;57.30;;;;;;5077266;28;20503;-47
2022/05/28 07:16:05;;;;;;;5.00;1.70;;;19.00;57.10;;;;;;5078079;28;20428;-46
2022/05/28 07:18:31;;;;;;;3.43;1.33;;;19.10;57.60;;;;;;5059998;28;20432;-44
2022/05/28 07:20:57;;;;;;;4.70;1.67;;;19.20;57.50;;;;;;5078253;28;20435;-44
2022/05/28 07:23:25;;;;;;;2.97;1.50;;;19.40;57.50;;;;;;5060880;28;20419;-45
2022/05/28 07:25:59;;;;;;;5.40;1.87;;;19.60;56.80;;;;;;5078272;28;20211;-46
2022/05/28 07:28:25;;;;;;;3.57;1.90;;;19.80;56.00;;;;;;5060671;28;20419;-46
2022/05/28 07:31:23;;;;;;;3.80;1.53;;;19.90;55.80;;;;;;5076603;28;20822;-44
2022/05/28 07:33:49;;;;;;;3.97;1.43;;;20.10;55.70;;;;;;5076633;28;20269;-45
2022/05/28 07:36:18;;;;;;;4.97;1.60;;;20.40;55.50;;;;;;5077498;28;20442;-47
2022/05/28 07:38:44;;;;;;;3.93;1.83;;;20.60;54.60;;;;;;5075909;28;20765;-47
2022/05/28 07:41:12;;;;;;;3.53;1.57;;;20.70;53.50;;;;;;5059582;28;20535;-47
2022/05/28 07:43:40;;;;;;;5.83;1.80;;;20.70;52.80;;;;;;5077147;28;20276;-46
2022/05/28 07:46:14;;;;;;;1.70;1.17;;;20.80;53.20;;;;;;5076345;28;20468;-47
2022/05/28 07:48:40;;;;;;;5.10;2.10;;;21.00;53.70;;;;;;5059537;28;20525;-45
2022/05/28 07:51:06;;;;;;;4.70;2.00;;;21.30;52.70;;;;;;5058086;28;20574;-46
2022/05/28 07:53:31;;;;;;;3.43;1.67;;;21.40;50.70;;;;;;5057875;28;20505;-47
2022/05/28 07:56:03;;;;;;;3.00;1.60;;;21.40;51.00;;;;;;5074025;28;20374;-45
2022/05/28 07:58:29;;;;;;;3.07;1.50;;;21.60;51.00;;;;;;5056626;28;20176;-46
2022/05/28 08:00:54;;;;;;;4.23;1.60;;;21.70;50.20;;;;;;5074526;28;20438;-49
2022/05/28 08:03:20;;;;;;;2.67;1.10;;;21.80;49.90;;;;;;5056643;28;20425;-46
2022/05/28 08:05:48;;;;;;;2.67;1.30;;;22.00;48.60;;;;;;5042120;28;20183;-47
2022/05/28 08:08:15;;;;;;;3.80;1.17;;;22.30;47.50;;;;;;5059771;28;20193;-47
2022/05/28 08:10:41;;;;;;;2.90;1.53;;;22.30;46.20;;;;;;5042270;28;20488;-47
2022/05/28 08:13:13;;;;;;;4.77;1.33;;;22.50;45.90;;;;;;5076457;28;20420;-45
2022/05/28 08:15:40;;;;;;;3.70;1.60;;;22.70;46.30;;;;;;5074683;28;20552;-51
2022/05/28 08:18:06;;;;;;;2.90;1.53;;;22.90;44.90;;;;;;5056382;28;20432;-45
2022/05/28 08:23:18;;;;;;;3.23;1.30;;;22.90;43.40;;;;;;5073939;28;20461;-47
2022/05/28 08:25:45;;;;;;;4.37;1.60;;;23.00;43.20;;;;;;5073979;28;20494;-45
2022/05/28 08:28:12;;;;;;;3.23;1.30;;;23.20;43.40;;;;;;5071921;28;20430;-43
2022/05/28 08:30:38;;;;;;;4.70;1.37;;;23.50;43.40;;;;;;5071297;28;20477;-48
2022/05/28 08:33:05;;;;;;;5.20;1.83;;;23.70;42.60;;;;;;5072928;28;20418;-48
2022/05/28 08:35:30;;;;;;;3.07;1.57;;;23.80;41.90;;;;;;5072536;28;20509;-53
2022/05/28 08:37:56;;;;;;;3.40;1.40;;;24.00;42.70;;;;;;5056675;28;20462;-47
2022/05/28 08:40:23;;;;;;;3.50;1.30;;;24.30;42.50;;;;;;5073743;28;20323;-44
2022/05/28 08:42:50;;;;;;;4.70;1.60;;;24.50;42.30;;;;;;5058435;28;20195;-45
2022/05/28 08:45:16;;;;;;;2.47;1.20;;;24.70;42.20;;;;;;5045879;28;20847;-45
2022/05/28 08:47:45;;;;;;;3.77;1.53;;;25.10;41.70;;;;;;5074760;28;20452;-51
2022/05/28 08:50:11;;;;;;;3.37;1.17;;;25.50;40.80;;;;;;5039129;28;20445;-46
2022/05/28 08:52:52;;;;;;;2.80;1.30;;;25.90;40.40;;;;;;5050675;28;20431;-48
2022/05/28 08:55:44;;;;;;;3.07;1.27;;;26.10;39.90;;;;;;5061735;28;20275;-46
2022/05/28 08:58:16;;;;;;;1.87;0.80;;;26.40;39.30;;;;;;5072143;28;20436;-46
2022/05/28 09:01:12;;;;;;;4.47;1.47;;;26.30;39.20;;;;;;5073807;28;20523;-46
2022/05/28 09:03:57;;;;;;;2.80;1.50;;;26.00;38.90;;;;;;5052805;28;20431;-44
2022/05/28 09:06:37;;;;;;;2.43;1.00;;;25.70;37.70;;;;;;5072325;28;20784;-44
2022/05/28 09:09:03;;;;;;;3.93;1.43;;;25.70;38.30;;;;;;5071928;28;20867;-48
2022/05/28 09:11:47;;;;;;;3.67;1.53;;;26.00;38.10;;;;;;5073970;28;20459;-49
2022/05/28 09:14:18;;;;;;;4.33;1.07;;;26.50;37.40;;;;;;5076324;28;20491;-46
2022/05/28 09:16:45;;;;;;;4.30;2.13;;;27.30;36.40;;;;;;5074730;28;20428;-46
2022/05/28 09:19:17;;;;;;;4.20;1.67;;;27.20;36.10;;;;;;5074103;28;20416;-48
2022/05/28 09:21:45;;;;;;;2.80;1.20;;;26.90;36.20;;;;;;5075530;28;20450;-45
2022/05/28 09:24:26;;;;;;;3.80;1.60;;;26.60;36.70;;;;;;5075087;28;20423;-46
2022/05/28 09:27:17;;;;;;;3.57;1.83;;;26.10;36.80;;;;;;5075772;28;20427;-49
2022/05/28 09:30:02;;;;;;;3.87;1.60;;;25.90;37.30;;;;;;5073538;28;20436;-45
2022/05/28 09:32:52;;;;;;;2.90;1.20;;;25.70;37.30;;;;;;5074929;28;20428;-47
2022/05/28 09:35:18;;;;;;;2.23;1.30;;;26.40;36.70;;;;;;5074883;28;20574;-48
2022/05/28 09:38:02;;;;;;;3.40;1.60;;;27.10;36.40;;;;;;5076843;28;20502;-45
2022/05/28 09:40:40;;;;;;;4.43;1.90;;;27.00;36.20;;;;;;5057752;28;20237;-48
2022/05/28 09:43:32;;;;;;;2.60;1.13;;;26.70;36.20;;;;;;5057103;28;20419;-47
2022/05/28 09:46:03;;;;;;;4.30;1.53;;;26.90;36.30;;;;;;5042873;28;20438;-47
2022/05/28 09:48:29;;;;;;;2.73;1.13;;;27.80;35.20;;;;;;5075426;28;20412;-46
2022/05/28 09:50:55;;;;;;;3.10;1.40;;;27.90;34.90;;;;;;5074716;28;20565;-49
2022/05/28 09:56:36;;;;;;;1.70;1.10;;;26.40;36.40;;;;;;5073618;28;20425;-49
2022/05/28 09:59:17;;;;;;;2.80;1.10;;;25.50;38.20;;;;;;5077510;28;20724;-44
2022/05/28 10:02:09;;;;;;;2.93;1.40;;;24.80;38.30;;;;;;5059752;28;20505;-46
2022/05/28 10:05:10;;;;;;;3.87;0.90;;;24.10;38.30;;;;;;5077910;28;20421;-45
2022/05/28 10:07:37;;;;;;;4.33;1.37;;;23.60;39.30;;;;;;5060842;28;20489;-42
2022/05/28 10:10:18;;;;;;;3.23;1.30;;;23.60;38.90;;;;;;5076900;28;20945;-45
2022/05/28 10:12:45;;;;;;;6.67;1.73;;;23.70;38.60;;;;;;5058726;28;20458;-47
2022/05/28 10:15:19;;;;;;;2.10;1.30;;;24.10;38.70;;;;;;5075265;28;20420;-45
2022/05/28 10:17:55;;;;;;;3.03;1.03;;;24.20;38.80;;;;;;5059515;28;20487;-45
2022/05/28 10:20:21;;;;;;;5.20;1.30;;;24.10;39.10;;;;;;5059842;28;20421;-45
2022/05/28 10:22:52;;;;;;;6.60;1.47;;;24.30;39.40;;;;;;5077239;28;20438;-47
2022/05/28 10:25:37;;;;;;;3.17;1.30;;;24.40;38.30;;;;;;5075202;28;20525;-48
2022/05/28 10:28:04;;;;;;;3.20;1.27;;;24.60;37.90;;;;;;5058194;28;20426;-51
2022/05/28 10:30:41;;;;;;;3.23;1.40;;;24.30;37.90;;;;;;5076740;28;20565;-48
2022/05/28 10:33:15;;;;;;;3.23;1.23;;;24.10;39.10;;;;;;5059017;28;20437;-47
2022/05/28 10:35:42;;;;;;;4.30;0.90;;;24.20;39.20;;;;;;5057348;28;20510;-48
2022/05/28 10:38:11;;;;;;;2.50;0.90;;;24.40;38.90;;;;;;5060014;28;20429;-49
2022/05/28 10:40:47;;;;;;;5.53;1.53;;;24.20;36.90;;;;;;5077089;28;20492;-49
2022/05/28 10:43:36;;;;;;;5.77;1.00;;;24.10;37.20;;;;;;5075624;28;20434;-48
2022/05/28 10:46:18;;;;;;;6.57;1.30;;;24.00;38.10;;;;;;5078479;28;20429;-50
2022/05/28 10:49:01;;;;;;;4.73;1.70;;;24.00;38.90;;;;;;5078401;28;20419;-50
2022/05/28 10:52:05;;;;;;;5.13;1.50;;;24.00;38.80;;;;;;5077551;28;20474;-50
2022/05/28 10:54:49;;;;;;;2.93;1.43;;;24.20;36.80;;;;;;5058503;28;20422;-48
2022/05/28 10:57:38;;;;;;;2.33;1.33;;;24.50;37.00;;;;;;5055855;28;20419;-51
2022/05/28 11:00:30;;;;;;;1.83;1.10;;;24.60;36.80;;;;;;5055189;28;20428;-47
2022/05/28 11:03:22;;;;;;;3.20;1.23;;;24.60;38.00;;;;;;5023749;28;20517;-47
2022/05/28 11:06:22;;;;;;;2.30;1.63;;;24.30;37.20;;;;;;5055507;28;20850;-49
2022/05/28 11:09:06;;;;;;;3.97;1.30;;;23.70;37.40;;;;;;5055176;28;20429;-54
2022/05/28 11:11:35;;;;;;;3.13;1.10;;;22.90;38.40;;;;;;5057715;28;20549;-48
2022/05/28 11:14:22;;;;;;;3.30;1.40;;;22.40;39.60;;;;;;5038299;28;20424;-46
2022/05/28 11:16:53;;;;;;;2.27;1.37;;;22.00;40.00;;;;;;5056864;28;20422;-48
2022/05/28 11:19:58;;;;;;;3.83;1.40;;;21.70;40.90;;;;;;5019903;28;20476;-48
2022/05/28 11:22:33;;;;;;;4.63;1.70;;;21.40;40.60;;;;;;5012953;28;20433;-48
2022/05/28 11:25:05;;;;;;;3.50;1.70;;;21.30;41.60;;;;;;5058487;28;20455;-47
2022/05/28 11:27:46;;;;;;;5.90;2.07;;;21.40;41.90;;;;;;5043324;28;20428;-50
2022/05/28 11:30:30;;;;;;;5.07;1.53;;;21.80;41.60;;;;;;5059028;28;20472;-51
2022/05/28 11:33:03;;;;;;;4.00;1.87;;;22.50;40.60;;;;;;5075066;28;20408;-50
2022/05/28 11:36:07;;;;;;;3.20;1.13;;;23.10;39.40;;;;;;5054477;28;20469;-48
2022/05/28 11:38:37;;;;;;;3.20;1.90;;;23.80;38.90;;;;;;5038095;28;20445;-47
2022/05/28 11:41:27;;;;;;;6.17;1.70;;;24.30;37.70;;;;;;5058066;28;20428;-47
2022/05/28 11:44:04;;;;;;;6.27;1.67;;;24.90;36.70;;;;;;5056653;28;20712;-49
2022/05/28 11:46:41;;;;;;;3.73;1.40;;;25.50;36.30;;;;;;5072557;28;20532;-48
2022/05/28 11:52:21;;;;;;;4.07;1.43;;;26.60;34.80;;;;;;5058347;28;20462;-48
2022/05/28 11:55:01;;;;;;;2.23;1.10;;;27.00;34.60;;;;;;5074239;28;20406;-49
2022/05/28 11:57:41;;;;;;;3.40;1.23;;;27.30;34.60;;;;;;5073741;28;20461;-50
2022/05/28 12:00:08;;;;;;;2.63;1.33;;;27.50;33.80;;;;;;5056737;28;20439;-49
2022/05/28 12:02:42;;;;;;;3.73;1.43;;;27.90;33.10;;;;;;5057156;28;20487;-47
2022/05/28 12:05:19;;;;;;;5.63;1.67;;;28.50;32.60;;;;;;5055943;28;20483;-48
2022/05/28 12:07:46;;;;;;;2.20;1.23;;;29.00;31.90;;;;;;5074352;28;20423;-48
2022/05/28 12:10:27;;;;;;;3.13;1.50;;;29.30;31.50;;;;;;5056587;28;20705;-51
2022/05/28 12:12:58;;;;;;;5.87;1.43;;;29.40;31.50;;;;;;5055357;28;20408;-49
2022/05/28 12:15:27;;;;;;;3.90;1.77;;;29.40;31.90;;;;;;5056357;28;20434;-49
2022/05/28 12:18:21;;;;;;;5.10;1.50;;;29.00;31.10;;;;;;5074078;28;20425;-49
2022/05/28 12:20:54;;;;;;;1.73;1.30;;;28.50;31.70;;;;;;5057513;28;20855;-46
2022/05/28 12:23:33;;;;;;;2.70;1.83;;;28.00;32.20;;;;;;5056626;28;20508;-49
2022/05/28 12:26:02;;;;;;;2.43;1.17;;;27.80;32.00;;;;;;5075361;28;20431;-46
2022/05/28 12:28:42;;;;;;;2.20;1.00;;;28.30;31.60;;;;;;5057207;28;20438;-49
2022/05/28 12:31:08;;;;;;;2.20;1.10;;;29.00;31.80;;;;;;5057919;28;20480;-48
2022/05/28 12:33:57;;;;;;;3.90;1.57;;;29.60;31.40;;;;;;5057110;28;20490;-51
2022/05/28 12:36:32;;;;;;;2.70;1.23;;;29.90;30.20;;;;;;5056537;28;20469;-48
2022/05/28 12:39:40;;;;;;;6.40;1.60;;;29.70;30.50;;;;;;5040101;28;20405;-49
2022/05/28 12:42:23;;;;;;;2.03;1.10;;;29.30;30.00;;;;;;5031659;28;20523;-48
2022/05/28 12:44:51;;;;;;;4.97;1.67;;;28.70;30.40;;;;;;5075994;28;20419;-48
2022/05/28 12:47:27;;;;;;;7.13;2.03;;;28.00;30.40;;;;;;5057064;28;20462;-49
2022/05/28 12:50:07;;;;;;;5.40;1.93;;;27.70;31.30;;;;;;5057886;28;20455;-47
2022/05/28 12:52:33;;;;;;;4.37;1.90;;;27.30;31.50;;;;;;5057103;28;20733;-48
2022/05/28 12:55:17;;;;;;;3.57;1.73;;;26.70;31.70;;;;;;5057855;28;20513;-48
2022/05/28 12:57:44;;;;;;;9.47;1.73;;;26.30;32.80;;;;;;5075853;28;20412;-46
2022/05/28 13:00:12;;;;;;;4.50;1.20;;;26.20;32.80;;;;;;5057498;28;20425;-46
2022/05/28 13:02:45;;;;;;;3.87;1.63;;;26.50;33.10;;;;;;5075176;28;20408;-46
2022/05/28 13:05:14;;;;;;;4.57;2.03;;;26.70;33.00;;;;;;5059643;28;20496;-48
2022/05/28 13:07:40;;;;;;;2.47;1.37;;;27.40;33.70;;;;;;5057349;28;20461;-49
2022/05/28 13:10:26;;;;;;;3.27;1.27;;;27.90;32.50;;;;;;5074697;28;20812;-48
2022/05/28 13:12:58;;;;;;;4.20;1.60;;;27.80;31.50;;;;;;5074347;28;20524;-47
2022/05/28 13:15:39;;;;;;;3.87;1.40;;;27.50;32.30;;;;;;5073639;28;20429;-47
2022/05/28 13:18:23;;;;;;;5.40;2.07;;;27.70;32.70;;;;;;5073617;28;20416;-48